Time;durP1;ratioP1;P1;durP2;ratioP2;P2;SDS_P1;SDS_P2;PMS_P1;PMS_P2;Temp;Humidity;BMP_temperature;BMP_pressure;BME280_temperature;BME280_humidity;BME280_pressure;Samples;Min_cycle;Max_cycle;Signal;HPM_P1;HPM_P2
2022/05/24 00:04:54;;;;;;;7.72;7.13;;;20.70;66.50;;;;;;10412926;28;20033;-64
2022/05/24 00:09:54;;;;;;;7.45;6.90;;;20.60;66.40;;;;;;10413140;28;20030;-64
2022/05/24 00:20:34;;;;;;;6.75;6.25;;;20.70;66.70;;;;;;10401966;28;20049;-63
2022/05/24 00:25:38;;;;;;;7.18;6.63;;;20.60;66.20;;;;;;10414435;28;20613;-64
2022/05/24 00:30:40;;;;;;;7.00;6.50;;;20.70;66.30;;;;;;10420003;28;20033;-64
2022/05/24 00:35:43;;;;;;;6.60;6.10;;;20.60;66.30;;;;;;10412294;28;20050;-62
2022/05/24 00:41:25;;;;;;;6.97;6.40;;;20.60;66.30;;;;;;10419758;28;20038;-64
2022/05/24 00:46:53;;;;;;;7.68;7.00;;;20.60;66.20;;;;;;10419654;28;20440;-63
2022/05/24 00:52:48;;;;;;;7.07;6.57;;;20.60;66.30;;;;;;10425596;28;20022;-64
2022/05/24 00:58:07;;;;;;;7.47;6.82;;;20.60;66.20;;;;;;10412609;28;20045;-64
2022/05/24 01:03:08;;;;;;;6.82;6.00;;;20.60;66.30;;;;;;10420977;28;20115;-64
2022/05/24 01:08:13;;;;;;;7.25;6.65;;;20.60;66.30;;;;;;10409650;28;20037;-64
2022/05/24 01:13:26;;;;;;;6.55;6.05;;;20.60;66.30;;;;;;10420109;28;20041;-63
2022/05/24 01:18:27;;;;;;;8.32;6.60;;;20.60;66.30;;;;;;10418497;28;20030;-62
2022/05/24 01:24:34;;;;;;;6.45;5.95;;;20.60;66.30;;;;;;10420812;28;20091;-63
2022/05/24 01:29:35;;;;;;;7.05;6.45;;;20.60;66.40;;;;;;10394675;28;20054;-63
2022/05/24 01:39:58;;;;;;;6.18;5.65;;;20.60;68.00;;;;;;10413003;28;20120;-64
2022/05/24 01:45:12;;;;;;;6.00;5.50;;;20.60;69.00;;;;;;10418860;28;20034;-64
2022/05/24 01:50:18;;;;;;;6.63;6.03;;;20.60;68.00;;;;;;10416407;28;20112;-63
2022/05/24 01:55:51;;;;;;;6.45;5.80;;;20.60;68.40;;;;;;10421867;28;20037;-62
2022/05/24 02:01:05;;;;;;;6.95;6.35;;;20.60;67.90;;;;;;10412996;28;20556;-63
2022/05/24 02:06:28;;;;;;;6.60;6.00;;;20.60;67.30;;;;;;10417030;28;20116;-63
2022/05/24 02:11:31;;;;;;;6.75;5.95;;;20.60;67.40;;;;;;10424354;28;20033;-63
2022/05/24 02:16:35;;;;;;;6.70;5.95;;;20.60;67.40;;;;;;10417556;28;20041;-63
2022/05/24 02:21:40;;;;;;;5.95;5.45;;;20.60;67.30;;;;;;10419109;28;20041;-63
2022/05/24 02:26:41;;;;;;;6.75;6.15;;;20.60;67.60;;;;;;10415123;28;20421;-64
2022/05/24 02:31:42;;;;;;;6.95;6.35;;;20.60;67.30;;;;;;10416853;28;20124;-63
2022/05/24 02:36:43;;;;;;;6.07;5.57;;;20.60;66.90;;;;;;10416548;28;20677;-63
2022/05/24 02:41:44;;;;;;;6.53;5.93;;;20.60;67.30;;;;;;10416277;28;20034;-63
2022/05/24 02:46:47;;;;;;;5.93;5.32;;;20.60;67.20;;;;;;10416604;28;20039;-64
2022/05/24 02:51:48;;;;;;;6.40;5.47;;;20.50;67.10;;;;;;10431709;28;20116;-63
2022/05/24 02:56:48;;;;;;;6.10;5.53;;;20.50;67.00;;;;;;10423695;28;20542;-64
2022/05/24 03:01:49;;;;;;;7.75;5.43;;;20.50;67.00;;;;;;10415724;28;20427;-63
2022/05/24 03:17:29;;;;;;;6.10;5.40;;;20.50;67.00;;;;;;10415966;28;20049;-63
2022/05/24 03:22:30;;;;;;;4.63;4.18;;;20.50;66.90;;;;;;10417022;28;20468;-63
2022/05/24 03:27:31;;;;;;;5.55;5.05;;;20.50;67.10;;;;;;10414563;28;20037;-63
2022/05/24 03:32:33;;;;;;;5.28;4.68;;;20.50;67.00;;;;;;10413212;28;20484;-63
2022/05/24 03:37:34;;;;;;;6.72;5.32;;;20.40;67.00;;;;;;10412653;28;20029;-63
2022/05/24 03:42:36;;;;;;;5.38;4.88;;;20.40;66.90;;;;;;10409543;28;20037;-61
2022/05/24 03:47:38;;;;;;;5.53;5.03;;;20.40;67.00;;;;;;10413486;28;20032;-64
2022/05/24 03:52:39;;;;;;;5.55;4.38;;;20.40;67.00;;;;;;10412087;28;20048;-62
2022/05/24 04:03:00;;;;;;;5.03;4.63;;;20.40;66.70;;;;;;10413322;28;20474;-64
2022/05/24 04:08:02;;;;;;;4.50;4.10;;;20.40;66.70;;;;;;10411591;28;20116;-63
2022/05/24 04:13:03;;;;;;;6.78;5.35;;;20.40;66.60;;;;;;10412438;28;20091;-64
2022/05/24 04:18:04;;;;;;;5.93;3.85;;;20.40;66.60;;;;;;10411540;28;20037;-63
2022/05/24 04:23:10;;;;;;;6.13;4.38;;;20.40;66.60;;;;;;10414842;28;20116;-63
2022/05/24 04:28:11;;;;;;;5.45;4.15;;;20.40;66.60;;;;;;10406142;28;20029;-62
2022/05/24 04:33:14;;;;;;;4.55;3.97;;;20.40;66.50;;;;;;10397455;28;20041;-63
2022/05/24 04:38:15;;;;;;;4.40;4.00;;;20.40;66.50;;;;;;10411678;28;20050;-63
2022/05/24 04:43:15;;;;;;;5.25;4.03;;;20.40;66.40;;;;;;10412311;28;20529;-63
2022/05/24 04:48:16;;;;;;;4.88;4.10;;;20.30;66.30;;;;;;10415715;28;20037;-63
2022/05/24 04:53:17;;;;;;;6.68;4.32;;;20.30;66.50;;;;;;10411363;28;20505;-60
2022/05/24 04:58:18;;;;;;;6.35;4.15;;;20.40;66.80;;;;;;10411054;28;20052;-58
2022/05/24 05:03:21;;;;;;;7.53;4.05;;;20.40;67.30;;;;;;10413049;28;20037;-60
2022/05/24 05:08:22;;;;;;;7.22;4.07;;;20.40;67.10;;;;;;10410484;28;20378;-60
2022/05/24 05:13:22;;;;;;;6.82;4.25;;;20.40;67.10;;;;;;10410690;28;20112;-60
2022/05/24 05:18:24;;;;;;;9.07;4.22;;;20.50;67.70;;;;;;10408576;28;20456;-60
2022/05/24 05:23:25;;;;;;;6.10;3.85;;;20.50;67.80;;;;;;10412447;28;20491;-63
2022/05/24 05:28:25;;;;;;;4.90;3.40;;;20.50;67.70;;;;;;10417687;28;20116;-61
2022/05/24 05:33:27;;;;;;;6.15;4.00;;;20.40;67.70;;;;;;10418193;28;20057;-60
2022/05/24 05:38:27;;;;;;;10.20;4.20;;;20.40;67.80;;;;;;10417325;28;20029;-58
2022/05/24 05:43:28;;;;;;;6.97;4.45;;;20.40;67.60;;;;;;10418157;28;20603;-63
2022/05/24 05:48:29;;;;;;;6.43;4.15;;;20.40;67.40;;;;;;10416518;28;20078;-64
2022/05/24 05:53:30;;;;;;;8.75;4.47;;;20.40;67.30;;;;;;10418407;28;20068;-61
2022/05/24 05:58:31;;;;;;;8.23;4.88;;;20.40;66.90;;;;;;10417339;28;20029;-61
2022/05/24 06:03:32;;;;;;;9.15;3.95;;;20.40;67.10;;;;;;10417055;28;20037;-63
2022/05/24 06:08:32;;;;;;;10.18;4.32;;;20.40;66.80;;;;;;10416405;28;20029;-63
2022/05/24 06:13:33;;;;;;;11.88;4.15;;;20.40;66.80;;;;;;10397092;28;20057;-62
2022/05/24 06:18:35;;;;;;;6.30;4.10;;;20.30;66.70;;;;;;10413523;28;20052;-63
2022/05/24 06:23:35;;;;;;;10.88;4.40;;;20.30;66.50;;;;;;10418150;28;20378;-63
2022/05/24 06:28:36;;;;;;;15.27;4.82;;;20.30;66.30;;;;;;10428763;28;20025;-63
2022/05/24 06:33:37;;;;;;;7.93;3.80;;;20.30;66.40;;;;;;10409857;28;20042;-60
2022/05/24 06:38:38;;;;;;;9.30;4.15;;;20.30;67.10;;;;;;10405238;28;20064;-61
2022/05/24 06:43:39;;;;;;;8.70;3.92;;;20.30;66.80;;;;;;10416530;28;20036;-61
2022/05/24 06:48:42;;;;;;;8.77;4.45;;;20.30;66.50;;;;;;10414021;28;20042;-60
2022/05/24 06:53:46;;;;;;;9.63;4.20;;;20.20;66.50;;;;;;10416174;28;20505;-59
2022/05/24 06:58:47;;;;;;;9.45;4.78;;;20.20;66.50;;;;;;10414355;28;20044;-60
2022/05/24 07:03:48;;;;;;;7.93;4.35;;;20.30;66.50;;;;;;10410547;28;20510;-60
2022/05/24 07:08:50;;;;;;;7.30;4.18;;;20.30;66.50;;;;;;10414765;28;20029;-59
2022/05/24 07:13:50;;;;;;;8.38;3.85;;;20.20;66.60;;;;;;10413761;28;20528;-61
2022/05/24 07:18:52;;;;;;;4.70;4.10;;;20.30;66.70;;;;;;10414376;28;20098;-59
2022/05/24 07:23:52;;;;;;;5.80;4.18;;;20.30;66.70;;;;;;10416656;28;20067;-61
2022/05/24 07:28:53;;;;;;;7.32;4.45;;;20.30;66.40;;;;;;10415172;28;20448;-60
2022/05/24 07:33:53;;;;;;;4.45;3.45;;;20.30;66.40;;;;;;10412215;28;20492;-61
2022/05/24 07:38:54;;;;;;;6.88;3.75;;;20.20;66.30;;;;;;10428573;28;20094;-61
2022/05/24 07:49:14;;;;;;;7.55;4.35;;;20.30;66.20;;;;;;10410756;28;20390;-60
2022/05/24 07:54:15;;;;;;;3.90;3.28;;;20.30;66.00;;;;;;10411427;28;20108;-60
2022/05/24 07:59:15;;;;;;;4.53;3.72;;;20.30;65.90;;;;;;10411838;28;20112;-61
2022/05/24 08:04:18;;;;;;;6.18;3.50;;;20.20;65.90;;;;;;10413423;28;20057;-61
2022/05/24 08:09:18;;;;;;;4.63;3.83;;;20.20;65.80;;;;;;10413277;28;20021;-57
2022/05/24 08:14:19;;;;;;;6.32;4.30;;;20.20;65.60;;;;;;10413060;28;20061;-60
2022/05/24 08:19:20;;;;;;;4.63;3.58;;;20.20;65.70;;;;;;10411689;28;20036;-61
2022/05/24 08:24:20;;;;;;;5.10;3.58;;;20.20;65.70;;;;;;10413073;28;20038;-60
2022/05/24 08:29:21;;;;;;;6.22;3.78;;;20.20;65.30;;;;;;10412553;28;20049;-61
2022/05/24 08:34:22;;;;;;;7.47;3.40;;;20.20;65.40;;;;;;10427785;28;20081;-61
2022/05/24 08:39:23;;;;;;;5.47;3.65;;;20.20;65.40;;;;;;10412326;28;20095;-62
2022/05/24 08:50:00;;;;;;;4.43;3.40;;;20.20;65.50;;;;;;10412783;28;20496;-61
2022/05/24 08:55:02;;;;;;;4.63;3.25;;;20.20;65.50;;;;;;10427484;28;20065;-60
2022/05/24 09:00:16;;;;;;;4.90;3.30;;;20.20;65.70;;;;;;10416369;28;20381;-61
2022/05/24 09:05:22;;;;;;;5.05;3.38;;;20.20;65.80;;;;;;10405813;28;20038;-60
2022/05/24 09:10:33;;;;;;;5.78;3.45;;;20.20;65.70;;;;;;10420271;28;20033;-59
2022/05/24 09:15:58;;;;;;;3.28;2.97;;;20.20;65.60;;;;;;10419750;28;20026;-61
2022/05/24 09:20:59;;;;;;;3.30;3.00;;;20.20;66.00;;;;;;10430700;28;20458;-61
2022/05/24 09:26:07;;;;;;;4.30;3.10;;;20.20;65.70;;;;;;10420950;28;20029;-61
2022/05/24 09:31:13;;;;;;;4.55;3.50;;;20.20;65.60;;;;;;10418997;28;20112;-61
2022/05/24 09:36:39;;;;;;;3.30;3.00;;;20.20;65.50;;;;;;10434094;28;20052;-61
2022/05/24 09:42:22;;;;;;;3.45;2.63;;;20.10;65.40;;;;;;10418865;28;20040;-62
2022/05/24 09:47:33;;;;;;;3.67;2.75;;;20.20;65.40;;;;;;10422622;28;20037;-61
2022/05/24 09:52:34;;;;;;;3.83;3.20;;;20.10;65.50;;;;;;10433483;28;20036;-61
2022/05/24 09:57:36;;;;;;;4.00;3.22;;;20.10;65.40;;;;;;10418089;28;20096;-60
2022/05/24 10:02:39;;;;;;;3.55;3.13;;;20.10;65.50;;;;;;10416624;28;20040;-61
2022/05/24 10:07:52;;;;;;;5.95;2.58;;;20.10;65.30;;;;;;10417845;28;20091;-60
2022/05/24 10:13:05;;;;;;;3.92;3.13;;;20.10;65.30;;;;;;10417122;28;20515;-60
2022/05/24 10:18:58;;;;;;;2.78;2.55;;;20.10;65.20;;;;;;10432629;28;20570;-61
2022/05/24 10:24:22;;;;;;;3.28;2.53;;;20.10;65.20;;;;;;10419040;28;20044;-61
2022/05/24 10:29:58;;;;;;;3.13;2.65;;;20.10;65.30;;;;;;10431906;28;20029;-61
2022/05/24 10:40:54;;;;;;;3.03;2.72;;;20.10;65.30;;;;;;10412089;28;20132;-61
2022/05/24 10:46:02;;;;;;;3.22;2.55;;;20.10;65.20;;;;;;10409925;28;20466;-61
2022/05/24 10:51:18;;;;;;;3.17;2.40;;;20.10;65.10;;;;;;10413889;28;20037;-60
2022/05/24 10:56:47;;;;;;;2.35;2.05;;;20.10;65.20;;;;;;10414560;28;20125;-61
2022/05/24 11:01:57;;;;;;;2.57;2.00;;;20.10;65.20;;;;;;10427394;28;20148;-61
2022/05/24 11:07:11;;;;;;;2.42;1.88;;;20.10;65.10;;;;;;10428148;28;20037;-62
2022/05/24 11:12:30;;;;;;;2.88;1.85;;;20.10;65.20;;;;;;10428508;28;20486;-61
2022/05/24 11:17:31;;;;;;;1.80;1.70;;;20.10;65.20;;;;;;10414985;28;20044;-61
2022/05/24 11:22:44;;;;;;;2.20;2.00;;;20.10;65.20;;;;;;10412355;28;20067;-62
2022/05/24 11:27:51;;;;;;;3.20;1.67;;;20.10;65.00;;;;;;10414437;28;20109;-58
2022/05/24 11:33:17;;;;;;;2.20;2.00;;;20.10;65.10;;;;;;10412381;28;20042;-62
2022/05/24 11:38:21;;;;;;;1.83;1.58;;;20.10;65.10;;;;;;10414575;28;20033;-61
2022/05/24 11:43:43;;;;;;;1.98;1.70;;;20.10;64.90;;;;;;10413694;28;20072;-61
2022/05/24 11:48:51;;;;;;;2.47;1.88;;;20.10;65.00;;;;;;10413601;28;20045;-61
2022/05/24 11:53:52;;;;;;;3.05;1.65;;;20.10;65.00;;;;;;10428270;28;20049;-62
2022/05/24 11:59:00;;;;;;;2.45;1.70;;;20.10;65.10;;;;;;10413374;28;20485;-62
2022/05/24 12:09:24;;;;;;;2.08;1.80;;;20.20;64.80;;;;;;10413863;28;20037;-61
2022/05/24 12:14:28;;;;;;;1.42;1.23;;;20.20;64.90;;;;;;10404653;28;20038;-60
2022/05/24 12:19:35;;;;;;;2.15;1.55;;;20.10;64.80;;;;;;10406601;28;20455;-60
2022/05/24 12:24:38;;;;;;;1.90;1.50;;;20.10;64.80;;;;;;10411181;28;20029;-61
2022/05/24 12:29:43;;;;;;;2.00;1.80;;;20.10;65.00;;;;;;10411947;28;20069;-62
2022/05/24 12:34:44;;;;;;;6.00;2.00;;;20.10;65.00;;;;;;10410211;28;20405;-61
2022/05/24 12:40:05;;;;;;;4.45;1.85;;;20.10;65.40;;;;;;10412349;28;20029;-62
2022/05/24 12:45:07;;;;;;;3.28;1.70;;;20.20;64.90;;;;;;10409258;28;20053;-63
2022/05/24 12:50:22;;;;;;;6.35;2.17;;;20.30;64.80;;;;;;10401209;28;20082;-62
2022/05/24 12:55:54;;;;;;;7.22;1.83;;;20.30;64.70;;;;;;10407554;28;20128;-62
2022/05/24 13:00:43;;;;;;;3.17;1.83;;;20.40;65.30;;;;;;10409765;28;20041;-62
2022/05/24 13:05:46;;;;;;;8.90;2.55;;;20.40;64.60;;;;;;10408760;28;20120;-62
2022/05/24 13:10:48;;;;;;;3.72;1.60;;;20.40;64.50;;;;;;10409623;28;20025;-62
2022/05/24 13:16:00;;;;;;;6.93;2.10;;;20.40;64.40;;;;;;10410833;28;20080;-62
2022/05/24 13:21:08;;;;;;;2.92;1.40;;;20.40;64.40;;;;;;10422061;28;20360;-60
2022/05/24 13:26:09;;;;;;;4.50;1.63;;;20.40;64.40;;;;;;10408712;28;20044;-61
2022/05/24 13:36:49;;;;;;;5.10;1.60;;;20.30;64.60;;;;;;10409931;28;20494;-62
2022/05/24 13:42:16;;;;;;;2.80;1.50;;;20.20;64.50;;;;;;10409571;28;20048;-63
2022/05/24 13:47:24;;;;;;;4.03;1.60;;;20.20;64.60;;;;;;10406559;28;20037;-62
2022/05/24 13:52:37;;;;;;;6.07;1.67;;;20.20;64.40;;;;;;10416850;28;20055;-64
2022/05/24 13:58:01;;;;;;;4.28;1.33;;;20.20;64.70;;;;;;10432302;28;20437;-66
2022/05/24 14:03:28;;;;;;;3.28;1.95;;;20.30;64.50;;;;;;10417100;28;20523;-63
2022/05/24 14:08:30;;;;;;;3.95;1.73;;;20.30;64.30;;;;;;10416793;28;20049;-63
2022/05/24 14:13:31;;;;;;;2.75;1.70;;;20.30;64.80;;;;;;10415996;28;20056;-62
2022/05/24 14:18:32;;;;;;;4.43;1.70;;;20.30;64.60;;;;;;10417174;28;20113;-61
2022/05/24 14:23:34;;;;;;;3.40;1.63;;;20.30;64.60;;;;;;10416981;28;20132;-61
2022/05/24 14:28:36;;;;;;;11.25;2.75;;;20.30;64.80;;;;;;10414249;28;20033;-62
2022/05/24 14:33:36;;;;;;;7.78;2.72;;;20.30;64.90;;;;;;10414958;28;20041;-62
2022/05/24 14:38:37;;;;;;;15.32;4.05;;;20.20;64.80;;;;;;10429197;28;20060;-64
2022/05/24 14:43:38;;;;;;;24.00;3.80;;;20.20;63.60;;;;;;10414024;28;20064;-63
2022/05/24 14:48:39;;;;;;;14.93;3.47;;;20.20;62.60;;;;;;10429319;28;20045;-63
2022/05/24 14:53:40;;;;;;;9.65;3.00;;;20.20;62.20;;;;;;10414433;28;20026;-65
2022/05/24 14:58:41;;;;;;;11.75;2.75;;;20.40;63.90;;;;;;10429163;28;20319;-67
2022/05/24 15:03:43;;;;;;;14.10;2.75;;;20.40;63.10;;;;;;10413766;28;20511;-61
2022/05/24 15:19:28;;;;;;;;;;;20.40;63.10;;;;;;10428772;28;20033;-66
2022/05/24 15:24:35;;;;;;;14.48;2.72;;;20.40;63.10;;;;;;10416542;28;19927;-65
2022/05/24 15:29:37;;;;;;;11.32;2.03;;;20.30;63.10;;;;;;10414485;28;20132;-65
2022/05/24 15:34:38;;;;;;;8.75;2.67;;;20.30;63.10;;;;;;10413612;28;20049;-65
2022/05/24 15:39:39;;;;;;;8.60;2.17;;;20.30;63.00;;;;;;10404001;28;20077;-64
2022/05/24 15:44:40;;;;;;;10.55;2.05;;;20.30;63.00;;;;;;10413602;28;20524;-63
2022/05/24 15:49:40;;;;;;;7.25;2.17;;;20.30;63.00;;;;;;10414232;28;20053;-63
2022/05/24 15:54:41;;;;;;;7.65;1.50;;;20.30;63.10;;;;;;10412775;28;20140;-63
2022/05/24 15:59:42;;;;;;;7.95;1.95;;;20.20;63.20;;;;;;10406395;28;20058;-64
2022/05/24 16:10:04;;;;;;;11.70;2.30;;;20.30;63.40;;;;;;10412423;28;20033;-60
2022/05/24 16:15:07;;;;;;;11.68;2.80;;;20.40;63.40;;;;;;10411857;28;20040;-62
2022/05/24 16:20:09;;;;;;;12.15;2.15;;;20.60;64.50;;;;;;10427905;28;20029;-62
2022/05/24 16:25:11;;;;;;;5.07;1.67;;;20.60;64.40;;;;;;10412516;28;20603;-62
2022/05/24 16:30:13;;;;;;;7.72;1.83;;;20.70;64.50;;;;;;10413195;28;20029;-61
2022/05/24 16:35:13;;;;;;;13.85;2.30;;;20.70;64.50;;;;;;10412955;28;20103;-65
2022/05/24 16:40:15;;;;;;;9.27;1.98;;;20.70;64.70;;;;;;10412973;28;20033;-66
2022/05/24 16:45:15;;;;;;;7.18;1.95;;;20.60;64.70;;;;;;10412324;28;20026;-65
2022/05/24 16:50:17;;;;;;;11.75;2.22;;;20.60;64.50;;;;;;10411210;28;20029;-66
2022/05/24 17:00:37;;;;;;;6.78;1.90;;;20.50;64.90;;;;;;10412903;28;20045;-62
2022/05/24 17:05:37;;;;;;;7.70;1.80;;;20.50;65.30;;;;;;10409959;28;20026;-64
2022/05/24 17:10:38;;;;;;;6.32;2.60;;;20.40;65.50;;;;;;10408589;28;20034;-62
2022/05/24 17:15:41;;;;;;;6.93;2.30;;;20.40;65.50;;;;;;10410640;28;20033;-63
2022/05/24 17:20:41;;;;;;;4.22;1.60;;;20.40;65.50;;;;;;10409635;28;20522;-64
2022/05/24 17:25:42;;;;;;;6.70;2.50;;;20.40;65.60;;;;;;10421660;28;20087;-61
2022/05/24 17:30:49;;;;;;;4.85;2.20;;;20.50;66.20;;;;;;10419653;28;20037;-63
2022/05/24 17:35:50;;;;;;;8.82;2.75;;;20.50;66.40;;;;;;10417138;28;20046;-64
2022/05/24 17:40:57;;;;;;;7.28;3.03;;;20.50;66.40;;;;;;10413630;28;20385;-59
2022/05/24 17:45:58;;;;;;;4.97;2.65;;;20.60;65.20;;;;;;10416572;28;20072;-60
2022/05/24 17:50:59;;;;;;;6.47;1.98;;;20.60;65.30;;;;;;10418346;28;20017;-61
2022/05/24 17:55:59;;;;;;;3.47;1.92;;;20.60;65.30;;;;;;10417764;28;20045;-62
2022/05/24 18:01:00;;;;;;;6.07;1.85;;;20.60;65.10;;;;;;10417421;28;20034;-61
2022/05/24 18:06:01;;;;;;;6.13;1.75;;;20.50;65.00;;;;;;10416847;28;20069;-62
2022/05/24 18:11:02;;;;;;;5.85;1.92;;;20.50;65.10;;;;;;10407858;28;20025;-61
2022/05/24 18:16:03;;;;;;;6.40;1.90;;;20.50;65.30;;;;;;10417155;28;20087;-61
2022/05/24 18:21:05;;;;;;;3.17;1.38;;;20.40;65.50;;;;;;10414434;28;20472;-64
2022/05/24 18:37:01;;;;;;;2.90;1.30;;;20.30;65.70;;;;;;10415615;28;20053;-64
2022/05/24 18:42:02;;;;;;;3.63;1.70;;;20.30;65.70;;;;;;10423538;28;20084;-65
2022/05/24 18:47:06;;;;;;;4.50;2.05;;;20.30;65.60;;;;;;10414928;28;20371;-62
2022/05/24 18:52:08;;;;;;;2.60;1.25;;;20.30;65.00;;;;;;10415820;28;20520;-62
2022/05/24 18:57:08;;;;;;;3.05;1.20;;;20.30;64.80;;;;;;10425416;28;20418;-63
2022/05/24 19:02:09;;;;;;;3.70;1.50;;;20.20;64.70;;;;;;10411838;28;20056;-63
2022/05/24 19:07:21;;;;;;;2.97;1.35;;;20.20;65.20;;;;;;10409918;28;20481;-64
2022/05/24 19:12:23;;;;;;;3.95;0.93;;;20.20;64.60;;;;;;10409518;28;20022;-63
2022/05/24 19:17:27;;;;;;;2.25;1.08;;;20.20;64.60;;;;;;10414285;28;20391;-63
2022/05/24 19:22:28;;;;;;;5.35;0.98;;;20.20;64.50;;;;;;10415747;28;20091;-64
2022/05/24 19:27:29;;;;;;;2.63;1.65;;;20.20;64.50;;;;;;10413487;28;20155;-63
2022/05/24 19:32:30;;;;;;;2.75;1.17;;;20.20;64.50;;;;;;10415106;28;20034;-64
2022/05/24 19:37:31;;;;;;;3.25;1.27;;;20.20;64.60;;;;;;10414620;28;20501;-62
2022/05/24 19:42:34;;;;;;;3.53;1.23;;;20.20;64.60;;;;;;10429513;28;20083;-63
2022/05/24 19:47:37;;;;;;;2.72;1.17;;;20.20;64.60;;;;;;10426978;28;20367;-63
2022/05/24 19:52:38;;;;;;;2.30;1.73;;;20.20;64.50;;;;;;10403858;28;20501;-63
2022/05/24 19:57:40;;;;;;;2.03;1.10;;;20.20;64.50;;;;;;10408409;28;20075;-63
2022/05/24 20:02:41;;;;;;;1.23;1.10;;;20.20;64.50;;;;;;10414009;28;20068;-63
2022/05/24 20:07:47;;;;;;;1.98;1.00;;;20.20;64.50;;;;;;10413378;28;20500;-62
2022/05/24 20:12:48;;;;;;;1.50;0.85;;;20.20;64.50;;;;;;10413592;28;20041;-63
2022/05/24 20:17:49;;;;;;;2.85;1.08;;;20.20;64.40;;;;;;10411537;28;20033;-62
2022/05/24 20:22:50;;;;;;;2.42;1.15;;;20.20;64.40;;;;;;10414084;28;20037;-63
2022/05/24 20:27:50;;;;;;;1.83;0.90;;;20.20;64.30;;;;;;10405203;28;20490;-63
2022/05/24 20:32:51;;;;;;;2.58;1.02;;;20.20;64.40;;;;;;10406816;28;20125;-63
2022/05/24 20:37:52;;;;;;;1.38;0.80;;;20.10;64.20;;;;;;10412119;28;20083;-62
2022/05/24 20:42:53;;;;;;;1.23;0.88;;;20.20;64.30;;;;;;10412821;28;20057;-63
2022/05/24 20:47:55;;;;;;;1.48;0.73;;;20.20;64.30;;;;;;10411497;28;20042;-64
2022/05/24 20:52:57;;;;;;;4.20;1.00;;;20.10;64.30;;;;;;10411789;28;20432;-63
2022/05/24 20:57:58;;;;;;;5.43;1.27;;;20.10;64.20;;;;;;10419620;28;20033;-63
2022/05/24 21:03:00;;;;;;;1.75;1.33;;;20.10;64.20;;;;;;10421160;28;20112;-63
2022/05/24 21:08:01;;;;;;;2.50;1.45;;;20.10;64.20;;;;;;10410389;28;20076;-63
2022/05/24 21:13:03;;;;;;;1.40;0.90;;;20.10;64.20;;;;;;10420863;28;20031;-63
2022/05/24 21:18:04;;;;;;;2.90;1.10;;;20.10;64.20;;;;;;10416924;28;20037;-62
2022/05/24 21:23:06;;;;;;;3.00;1.17;;;20.10;64.20;;;;;;10408767;28;20033;-63
2022/05/24 21:28:11;;;;;;;1.92;1.23;;;20.10;64.20;;;;;;10417009;28;20030;-63
2022/05/24 21:33:25;;;;;;;1.85;0.95;;;20.10;64.20;;;;;;10392651;28;20494;-64
2022/05/24 21:38:29;;;;;;;1.50;1.00;;;20.10;64.20;;;;;;10419801;28;20485;-62
2022/05/24 21:43:30;;;;;;;2.20;1.27;;;20.10;64.20;;;;;;10434855;28;20057;-62
2022/05/24 21:48:32;;;;;;;2.33;1.02;;;20.10;64.10;;;;;;10417505;28;20040;-63
2022/05/24 21:53:35;;;;;;;1.05;0.80;;;20.10;64.10;;;;;;10434465;28;20028;-63
2022/05/24 21:58:37;;;;;;;1.77;1.00;;;20.10;64.10;;;;;;10418780;28;20030;-62
2022/05/24 22:03:40;;;;;;;1.88;0.90;;;20.10;64.10;;;;;;10418992;28;20029;-63
2022/05/24 22:08:41;;;;;;;2.22;1.08;;;20.00;64.00;;;;;;10416265;28;20124;-63
2022/05/24 22:13:43;;;;;;;1.48;0.93;;;20.00;64.00;;;;;;10418402;28;20025;-62
2022/05/24 22:18:45;;;;;;;1.52;1.10;;;20.00;64.00;;;;;;10430337;28;20039;-63
2022/05/24 22:23:46;;;;;;;1.73;1.25;;;20.00;63.90;;;;;;10420146;28;20029;-63
2022/05/24 22:28:49;;;;;;;1.52;1.20;;;20.00;64.00;;;;;;10417542;28;20033;-63
2022/05/24 22:33:49;;;;;;;1.48;0.90;;;20.00;63.90;;;;;;10417589;28;20125;-64
2022/05/24 22:38:50;;;;;;;1.25;0.70;;;20.00;63.90;;;;;;10417162;28;20026;-63
2022/05/24 22:43:51;;;;;;;1.88;1.13;;;20.00;63.90;;;;;;10417484;28;20078;-63
2022/05/24 22:48:53;;;;;;;2.45;1.20;;;20.00;63.90;;;;;;10432097;28;20481;-63
2022/05/24 22:53:56;;;;;;;1.63;1.25;;;20.00;63.90;;;;;;10417136;28;20379;-62
2022/05/24 22:58:57;;;;;;;1.45;1.08;;;20.00;63.90;;;;;;10415187;28;20494;-64
2022/05/24 23:03:58;;;;;;;1.42;1.20;;;20.00;63.90;;;;;;10416566;28;20053;-63
2022/05/24 23:08:58;;;;;;;1.50;1.10;;;19.90;63.80;;;;;;10416142;28;20441;-63
2022/05/24 23:13:59;;;;;;;1.70;1.17;;;19.90;63.80;;;;;;10416125;28;20116;-62
2022/05/24 23:19:00;;;;;;;1.38;0.90;;;19.90;64.40;;;;;;10412312;28;20065;-63
2022/05/24 23:24:01;;;;;;;2.38;1.40;;;19.90;63.70;;;;;;10415863;28;20029;-63
2022/05/24 23:29:02;;;;;;;2.38;1.20;;;19.90;63.70;;;;;;10429992;28;20113;-62
2022/05/24 23:34:04;;;;;;;1.00;0.88;;;19.90;63.70;;;;;;10415016;28;20052;-63
2022/05/24 23:39:05;;;;;;;2.55;1.42;;;19.90;63.70;;;;;;10418763;28;20040;-63
2022/05/24 23:44:06;;;;;;;2.42;1.52;;;19.90;63.60;;;;;;10414977;28;20037;-63
2022/05/24 23:49:06;;;;;;;1.77;1.55;;;19.90;63.60;;;;;;10414505;28;20052;-63
2022/05/24 23:54:07;;;;;;;1.33;0.95;;;19.90;63.60;;;;;;10414442;28;20401;-63
2022/05/24 23:59:09;;;;;;;2.70;0.90;;;19.90;63.60;;;;;;10414190;28;20045;-63
